TimeEDT,TemperatureF,Dew PointF,Humidity,Sea Level PressureIn,VisibilityMPH,Wind Direction,Wind SpeedMPH,Gust SpeedMPH,PrecipitationIn,Events,Conditions,WindDirDegrees,DateUTC
12:53 AM,66.0,62.1,87,30.08,10.0,WSW,3.5,-,N/A,,Clear,250,2012-11-03 04:53:00
1:53 AM,64.9,62.1,90,30.07,10.0,WSW,3.5,-,N/A,,Clear,250,2012-11-03 05:53:00
2:53 AM,64.0,62.1,93,30.07,10.0,SW,3.5,-,N/A,,Clear,220,2012-11-03 06:53:00
3:53 AM,64.9,63.0,93,30.06,10.0,Calm,Calm,-,N/A,,Clear,0,2012-11-03 07:53:00
4:53 AM,68.0,62.1,81,30.06,10.0,West,3.5,-,N/A,,Clear,280,2012-11-03 08:53:00
5:53 AM,66.9,62.1,84,30.07,10.0,Calm,Calm,-,N/A,,Clear,0,2012-11-03 09:53:00
6:53 AM,66.0,63.0,90,30.09,10.0,Calm,Calm,-,N/A,,Clear,0,2012-11-03 10:53:00
7:53 AM,64.0,62.1,93,30.11,10.0,Calm,Calm,-,N/A,,Clear,0,2012-11-03 11:53:00
8:53 AM,66.0,63.0,90,30.13,10.0,SW,3.5,-,N/A,,Scattered Clouds,220,2012-11-03 12:53:00
9:53 AM,71.1,64.9,81,30.14,10.0,Calm,Calm,-,N/A,,Scattered Clouds,0,2012-11-03 13:53:00
10:53 AM,71.1,66.9,87,30.14,10.0,SSE,5.8,-,N/A,,Clear,150,2012-11-03 14:53:00
11:53 AM,73.0,66.9,81,30.13,10.0,SSE,6.9,-,N/A,,Clear,160,2012-11-03 15:53:00
12:53 PM,75.0,68.0,79,30.12,10.0,South,6.9,-,N/A,,Clear,180,2012-11-03 16:53:00
1:53 PM,75.9,68.0,76,30.09,10.0,South,9.2,-,N/A,,Clear,170,2012-11-03 17:53:00
2:53 PM,77.0,66.9,71,30.07,10.0,SSW,4.6,-,N/A,,Mostly Cloudy,200,2012-11-03 18:53:00
3:22 PM,77.0,66.2,69,30.07,10.0,West,6.9,-,N/A,,Mostly Cloudy,260,2012-11-03 19:22:00
3:31 PM,77.0,66.2,69,30.07,10.0,West,6.9,-,N/A,,Scattered Clouds,260,2012-11-03 19:31:00
3:53 PM,75.9,66.0,71,30.06,10.0,WNW,6.9,-,N/A,,Scattered Clouds,290,2012-11-03 19:53:00
4:53 PM,75.9,66.9,74,30.05,10.0,West,8.1,-,N/A,,Mostly Cloudy,260,2012-11-03 20:53:00
5:53 PM,75.9,68.0,76,30.05,10.0,West,6.9,-,N/A,,Clear,280,2012-11-03 21:53:00
6:53 PM,75.0,66.9,76,30.06,10.0,NNW,6.9,-,N/A,,Clear,340,2012-11-03 22:53:00
7:53 PM,73.0,66.9,81,30.07,10.0,NW,5.8,-,N/A,,Clear,320,2012-11-03 23:53:00
8:53 PM,72.0,68.0,87,30.08,10.0,NNW,5.8,-,N/A,,Clear,330,2012-11-04 00:53:00
9:53 PM,71.1,69.1,93,30.09,9.0,NNW,4.6,-,N/A,,Clear,340,2012-11-04 01:53:00
10:53 PM,70.0,69.1,97,30.09,7.0,Calm,Calm,-,N/A,,Clear,0,2012-11-04 02:53:00
11:53 PM,68.0,66.9,96,30.09,6.0,Calm,Calm,-,N/A,,Clear,0,2012-11-04 03:53:00